createdAt,value
2022-12-01T00:01:14.632Z,30.63
2022-12-01T00:03:43.353Z,28.65
2022-12-01T00:06:12.457Z,29.02
2022-12-01T00:08:39.211Z,29.40
2022-12-01T00:11:08.107Z,29.85
2022-12-01T00:13:36.326Z,29.20
2022-12-01T00:16:15.357Z,29.13
2022-12-01T00:18:42.448Z,29.38
2022-12-01T00:21:15.770Z,28.67
2022-12-01T00:23:49.746Z,27.65
2022-12-01T00:26:17.764Z,28.30
2022-12-01T00:28:45.008Z,28.45
2022-12-01T00:31:13.622Z,25.70
2022-12-01T00:33:40.203Z,26.48
2022-12-01T00:36:07.692Z,28.88
2022-12-01T00:38:35.304Z,28.13
2022-12-01T00:41:02.813Z,28.60
2022-12-01T00:43:29.716Z,26.95
2022-12-01T00:45:56.786Z,26.40
2022-12-01T00:48:23.811Z,26.63
2022-12-01T00:50:52.331Z,24.95
2022-12-01T00:53:19.228Z,26.38
2022-12-01T00:55:46.028Z,28.13
2022-12-01T00:58:12.801Z,29.65
2022-12-01T01:00:42.475Z,26.38
2022-12-01T01:03:10.159Z,28.13
2022-12-01T01:05:40.786Z,25.23
2022-12-01T01:08:12.512Z,26.95
2022-12-01T01:10:40.532Z,27.45
2022-12-01T01:13:09.789Z,28.23
2022-12-01T01:15:37.971Z,27.63
2022-12-01T01:18:05.427Z,25.83
2022-12-01T01:20:35.602Z,28.98
2022-12-01T01:23:02.243Z,26.83
2022-12-01T01:25:28.808Z,29.27
2022-12-01T01:27:55.441Z,27.30
2022-12-01T01:30:23.551Z,28.73
2022-12-01T01:32:50.222Z,28.90
2022-12-01T01:35:16.831Z,26.30
2022-12-01T01:37:45.753Z,26.23
2022-12-01T01:40:12.575Z,25.35
2022-12-01T01:42:39.174Z,23.48
2022-12-01T01:45:20.219Z,26.20
2022-12-01T01:47:48.528Z,24.58
2022-12-01T01:50:18.478Z,22.60
2022-12-01T01:52:52.624Z,24.83
2022-12-01T01:55:19.740Z,22.95
2022-12-01T01:57:46.693Z,23.02
2022-12-01T02:00:18.559Z,24.63
2022-12-01T02:02:47.351Z,23.23
2022-12-01T02:05:21.326Z,25.15
2022-12-01T02:07:48.779Z,26.10
2022-12-01T02:10:22.630Z,25.33
2022-12-01T02:12:52.185Z,29.75
2022-12-01T02:15:42.348Z,27.88
2022-12-01T02:18:32.010Z,28.70
2022-12-01T02:21:10.735Z,31.50
2022-12-01T02:23:40.329Z,36.90
2022-12-01T02:26:17.532Z,34.38
2022-12-01T02:29:02.414Z,34.85
2022-12-01T02:31:49.674Z,32.92
2022-12-01T02:34:38.113Z,33.45
2022-12-01T02:37:14.766Z,35.25
2022-12-01T02:40:01.521Z,31.92
2022-12-01T02:42:59.327Z,35.97
2022-12-01T02:45:34.417Z,33.08
2022-12-01T02:48:05.907Z,35.43
2022-12-01T02:50:35.768Z,36.67
2022-12-01T02:53:08.092Z,35.53
2022-12-01T02:55:34.812Z,38.72
2022-12-01T02:58:01.490Z,42.55
2022-12-01T03:00:30.971Z,32.83
2022-12-01T03:03:15.631Z,32.75
2022-12-01T03:06:18.595Z,30.05
2022-12-01T03:09:09.215Z,27.80
2022-12-01T03:12:00.662Z,26.02
2022-12-01T03:14:45.743Z,29.95
2022-12-01T03:17:19.976Z,27.25
2022-12-01T03:19:53.763Z,29.42
2022-12-01T03:22:26.020Z,29.92
2022-12-01T03:24:55.825Z,31.08
2022-12-01T03:27:28.135Z,32.58
2022-12-01T03:29:58.114Z,31.17
2022-12-01T03:32:33.614Z,28.95
2022-12-01T03:35:19.642Z,31.20
2022-12-01T03:37:57.748Z,30.70
2022-12-01T03:40:29.585Z,31.92
2022-12-01T03:42:59.652Z,32.38
2022-12-01T03:45:31.733Z,33.25
2022-12-01T03:47:58.748Z,33.92
2022-12-01T03:50:33.494Z,34.60
2022-12-01T03:53:13.422Z,32.47
2022-12-01T03:55:44.235Z,36.20
2022-12-01T03:58:20.507Z,40.90
2022-12-01T04:00:50.712Z,53.33
2022-12-01T04:03:23.054Z,38.40
2022-12-01T04:05:49.739Z,37.15
2022-12-01T04:08:17.113Z,39.22
2022-12-01T04:10:43.833Z,36.90
2022-12-01T16:56:01.188Z,52.25
2022-12-01T16:58:28.167Z,63.33
2022-12-01T17:00:54.928Z,70.72
2022-12-01T17:03:28.027Z,74.15
2022-12-01T17:05:59.250Z,75.07
2022-12-01T17:08:26.050Z,78.95
2022-12-01T17:10:54.837Z,90.72
2022-12-01T17:13:25.555Z,84.95
2022-12-01T17:15:54.262Z,68.90
2022-12-01T17:18:23.065Z,74.38
2022-12-01T17:21:00.914Z,73.20
2022-12-01T17:23:29.828Z,73.65
2022-12-01T17:25:56.711Z,73.50
2022-12-01T17:28:23.334Z,73.80
2022-12-01T17:30:50.135Z,73.75
2022-12-01T17:33:16.863Z,72.78
2022-12-01T17:35:43.587Z,72.15
2022-12-01T17:38:10.367Z,73.13
2022-12-01T17:40:37.155Z,71.50
2022-12-01T17:43:03.757Z,68.20
2022-12-01T17:45:30.400Z,69.05
2022-12-01T17:47:57.100Z,65.15
2022-12-01T17:50:23.682Z,67.20
2022-12-01T17:52:50.312Z,65.68
2022-12-01T17:55:19.664Z,80.75
2022-12-01T17:57:46.292Z,82.93
2022-12-01T18:00:14.728Z,79.97
2022-12-01T18:02:41.359Z,77.63
2022-12-01T18:05:08.405Z,73.93
2022-12-01T18:07:36.751Z,74.32
2022-12-01T18:10:03.965Z,71.95
2022-12-01T18:12:33.449Z,73.20
2022-12-01T18:15:00.030Z,63.55
2022-12-01T18:17:26.886Z,61.72
2022-12-01T18:19:53.560Z,58.95
2022-12-01T18:22:21.172Z,56.20
2022-12-01T18:24:48.082Z,56.13
2022-12-01T18:27:14.961Z,57.22
2022-12-01T18:29:42.451Z,56.70
2022-12-01T18:32:09.122Z,56.45
2022-12-01T18:34:35.739Z,56.50
2022-12-01T18:37:04.175Z,58.38
2022-12-01T18:39:30.774Z,59.67
2022-12-01T18:41:57.608Z,65.85
2022-12-01T18:44:25.110Z,71.28
2022-12-01T18:46:54.072Z,66.55
2022-12-01T18:49:20.947Z,61.20
2022-12-01T18:51:48.227Z,65.45
2022-12-01T18:54:17.238Z,65.38
2022-12-01T18:56:45.769Z,69.38
2022-12-01T18:59:13.873Z,72.82
2022-12-01T19:01:48.656Z,73.35
2022-12-01T19:04:17.275Z,79.40
2022-12-01T19:06:52.708Z,76.13
2022-12-01T19:09:22.304Z,83.05
2022-12-01T19:11:49.308Z,76.00
2022-12-01T19:14:22.049Z,76.40
2022-12-01T19:16:58.827Z,73.53
2022-12-01T19:19:26.368Z,80.68
2022-12-01T19:21:54.016Z,86.95
2022-12-01T19:24:23.281Z,94.25
2022-12-01T19:26:49.847Z,94.90
2022-12-01T19:29:16.684Z,88.95
2022-12-01T19:31:43.752Z,87.00
2022-12-01T19:34:13.605Z,86.30
2022-12-01T19:36:40.199Z,84.32
2022-12-01T19:39:07.844Z,87.38
2022-12-01T19:41:34.882Z,84.82
2022-12-01T19:44:02.260Z,87.38
2022-12-01T19:46:29.024Z,73.13
2022-12-01T19:49:00.212Z,68.85
2022-12-01T19:51:30.481Z,71.88
2022-12-01T19:53:58.474Z,74.13
2022-12-01T19:56:28.166Z,75.53
2022-12-01T19:58:55.982Z,76.88
2022-12-01T20:01:22.813Z,76.93
2022-12-01T20:03:51.476Z,76.55
2022-12-01T20:06:21.587Z,79.43
2022-12-01T20:08:48.619Z,80.38
2022-12-01T20:11:15.515Z,75.45
2022-12-01T20:13:45.017Z,78.55
2022-12-01T20:16:18.101Z,81.22
2022-12-01T20:18:47.332Z,81.18
2022-12-01T20:21:19.317Z,75.22
2022-12-01T20:23:51.492Z,77.47
2022-12-01T20:26:19.696Z,75.68
2022-12-01T20:28:49.034Z,74.40
2022-12-01T20:31:22.724Z,73.45
2022-12-01T20:33:50.701Z,72.10
2022-12-01T20:36:17.458Z,71.05
2022-12-01T20:38:44.145Z,60.45
2022-12-01T20:41:11.574Z,59.65
2022-12-01T20:43:38.422Z,60.72
2022-12-01T20:46:05.450Z,62.83
2022-12-01T20:48:32.940Z,59.13
2022-12-01T20:51:01.119Z,46.47
2022-12-01T20:53:28.375Z,55.08
2022-12-01T20:55:55.783Z,46.20
2022-12-01T20:58:22.459Z,48.80
2022-12-01T21:00:49.307Z,54.42
2022-12-01T21:03:15.883Z,54.97
2022-12-01T21:05:43.502Z,57.05
2022-12-01T21:08:13.937Z,57.47
2022-12-01T21:10:47.031Z,56.58
2022-12-01T21:13:42.813Z,53.38
2022-12-01T21:16:14.580Z,53.42
2022-12-01T21:19:08.078Z,52.58
2022-12-01T21:21:43.715Z,53.53
2022-12-01T21:24:21.204Z,52.78
2022-12-01T21:26:58.687Z,60.88
2022-12-01T21:29:39.420Z,56.25
2022-12-01T21:32:23.164Z,59.40
2022-12-01T21:34:50.202Z,63.63
2022-12-01T21:37:23.015Z,63.40
2022-12-01T21:39:57.711Z,61.42
2022-12-01T21:42:30.488Z,60.60
2022-12-01T21:44:57.683Z,58.50
2022-12-01T21:47:27.445Z,56.38
2022-12-01T21:49:56.899Z,53.17
2022-12-01T21:52:30.916Z,55.67
2022-12-01T21:55:08.965Z,55.05
2022-12-01T21:57:52.470Z,54.03
2022-12-01T22:00:36.830Z,53.92
2022-12-01T22:03:09.179Z,53.65
2022-12-01T22:05:41.505Z,55.50
2022-12-01T22:08:50.831Z,53.97
2022-12-01T22:11:23.151Z,57.33
2022-12-01T22:13:49.678Z,58.03
2022-12-01T22:16:22.498Z,54.40
2022-12-01T22:19:25.092Z,57.20
2022-12-01T22:22:02.497Z,58.60
2022-12-01T22:24:46.679Z,56.10
2022-12-01T22:27:23.341Z,53.90
2022-12-01T22:29:52.287Z,54.35
2022-12-01T22:32:44.196Z,56.95
2022-12-01T22:35:23.070Z,50.10
2022-12-01T22:41:05.989Z,52.63
2022-12-01T22:43:46.656Z,48.33
2022-12-01T22:46:29.432Z,49.60
2022-12-01T22:48:59.707Z,52.50
2022-12-01T22:51:29.514Z,53.42
2022-12-01T22:54:18.305Z,53.20
2022-12-01T22:56:48.935Z,55.08
2022-12-01T22:59:15.536Z,56.35
2022-12-01T23:01:48.678Z,55.30
2022-12-01T23:04:26.505Z,53.83
2022-12-01T23:07:17.991Z,50.28
2022-12-01T23:09:44.747Z,48.20
2022-12-01T23:12:11.242Z,50.60
2022-12-01T23:14:44.622Z,49.22
2022-12-01T23:17:16.617Z,47.92
2022-12-01T23:19:43.251Z,45.35
2022-12-01T23:22:11.034Z,46.50
2022-12-01T23:24:38.878Z,41.90
2022-12-01T23:27:06.606Z,44.05
2022-12-01T23:29:35.415Z,41.65
2022-12-01T23:32:02.093Z,39.63
2022-12-01T23:34:29.022Z,39.05
2022-12-01T23:36:56.600Z,48.67
2022-12-01T23:39:31.975Z,51.15
2022-12-01T23:41:59.580Z,49.83
2022-12-01T23:44:29.128Z,45.03
2022-12-01T23:46:57.782Z,46.92
2022-12-01T23:49:30.846Z,43.97
2022-12-01T23:52:01.128Z,45.58
2022-12-01T23:54:32.672Z,46.20
2022-12-01T23:57:24.283Z,41.83
2022-12-01T23:59:55.151Z,41.30
